createdAt,value
2023-01-04T00:11:26.600Z,3.47
2023-01-04T00:26:27.711Z,3.52
2023-01-04T00:41:56.847Z,3.58
2023-01-04T00:56:33.946Z,3.66
2023-01-04T01:11:36.300Z,3.65
2023-01-04T01:26:38.169Z,3.70
2023-01-04T01:41:39.319Z,3.79
2023-01-04T01:56:39.900Z,3.60
2023-01-04T02:11:41.779Z,3.24
2023-01-04T02:26:43.662Z,3.18
2023-01-04T02:41:45.587Z,3.36
2023-01-04T02:56:47.429Z,3.36
2023-01-04T03:11:49.724Z,3.48
2023-01-04T03:26:51.652Z,3.47
2023-01-04T03:41:53.488Z,3.55
2023-01-04T03:56:55.396Z,3.61
2023-01-04T04:11:57.260Z,3.68
2023-01-04T04:26:59.141Z,3.83
2023-01-04T04:42:00.028Z,3.80
2023-01-04T04:57:02.331Z,3.90
2023-01-04T05:12:03.073Z,4.02
2023-01-04T05:27:04.967Z,4.20
2023-01-04T05:42:05.275Z,4.33
2023-01-04T05:57:07.795Z,4.40
2023-01-04T06:12:08.360Z,4.45
2023-01-04T06:27:10.883Z,4.55
2023-01-04T06:42:11.482Z,4.86
2023-01-04T06:57:14.965Z,5.07
2023-01-04T07:12:14.844Z,5.27
2023-01-04T07:27:16.593Z,5.51
2023-01-04T07:42:17.215Z,5.54
2023-01-04T07:57:17.934Z,5.65
2023-01-04T08:12:18.464Z,5.78
2023-01-04T08:27:19.090Z,5.91
2023-01-04T08:42:28.512Z,6.15
2023-01-04T08:57:25.354Z,6.30
2023-01-04T09:12:25.936Z,6.38
2023-01-04T09:27:26.603Z,6.54
2023-01-04T09:42:33.364Z,6.64
2023-01-04T09:57:32.782Z,6.71
2023-01-04T10:12:33.394Z,6.81
2023-01-04T10:27:37.828Z,6.97
2023-01-04T10:42:39.194Z,6.99
2023-01-04T10:57:42.275Z,7.17
2023-01-04T11:12:43.092Z,7.28
2023-01-04T11:27:44.872Z,7.45
2023-01-04T11:42:46.696Z,7.50
2023-01-04T11:57:48.956Z,7.64
2023-01-04T12:12:49.841Z,7.80
2023-01-04T12:27:50.635Z,7.89
2023-01-04T12:42:51.253Z,8.05
2023-01-04T12:57:53.164Z,8.04
2023-01-04T13:12:55.070Z,8.23
2023-01-04T13:27:58.164Z,8.25
2023-01-04T13:42:59.015Z,8.34
2023-01-04T13:58:01.087Z,8.45
2023-01-04T14:13:02.618Z,8.47
2023-01-04T14:28:05.536Z,8.61
2023-01-04T14:43:06.838Z,8.71
2023-01-04T14:58:07.957Z,8.89
2023-01-04T15:13:09.036Z,9.02
2023-01-04T15:28:12.149Z,8.98
2023-01-04T15:43:13.561Z,9.01
2023-01-04T15:58:14.146Z,8.99
2023-01-04T16:13:14.979Z,9.08
2023-01-04T16:28:15.595Z,9.05
2023-01-04T16:43:16.196Z,9.05
2023-01-04T16:58:17.257Z,9.24
2023-01-04T17:13:17.429Z,9.38
2023-01-04T17:28:24.521Z,9.58
2023-01-04T17:43:23.693Z,9.72
2023-01-04T17:58:24.239Z,9.84
2023-01-04T18:13:25.315Z,9.93
2023-01-04T18:28:25.489Z,9.97
2023-01-04T18:43:27.472Z,10.18
2023-01-04T18:58:27.957Z,10.33
2023-01-04T19:13:30.260Z,10.29
2023-01-04T19:28:30.542Z,10.32
2023-01-04T19:43:31.885Z,10.36
2023-01-04T19:58:32.014Z,10.08
2023-01-04T20:13:33.368Z,10.09
2023-01-04T20:28:34.237Z,9.96
2023-01-04T20:43:37.129Z,9.89
2023-01-04T20:58:36.958Z,9.96
2023-01-04T21:13:37.561Z,9.96
2023-01-04T21:28:38.180Z,9.90
2023-01-04T21:43:38.288Z,9.83
2023-01-04T21:58:39.141Z,9.75
2023-01-04T22:13:42.536Z,10.02
2023-01-04T22:28:43.610Z,9.96
2023-01-04T22:43:44.166Z,9.97
2023-01-04T22:58:52.520Z,10.15
2023-01-04T23:13:55.312Z,10.08
2023-01-04T23:28:57.548Z,10.01
2023-01-04T23:43:59.791Z,10.09
2023-01-04T23:59:00.906Z,9.97
